Time;durP1;ratioP1;P1;durP2;ratioP2;P2;SDS_P1;SDS_P2;PMS_P1;PMS_P2;Temp;Humidity;BMP_temperature;BMP_pressure;BME280_temperature;BME280_humidity;BME280_pressure;Samples;Min_cycle;Max_cycle;Signal;HPM_P1;HPM_P2
2022/07/22 00:01:36;;;;;;;8.25;7.38;;;;;;;18.90;67.62;96070.38;5033584;28;20197;-76
2022/07/22 00:04:02;;;;;;;9.07;8.07;;;;;;;18.87;67.81;96065.50;5023704;28;20194;-78
2022/07/22 00:06:28;;;;;;;8.05;7.35;;;;;;;18.99;67.38;96065.81;5051059;28;20186;-78
2022/07/22 00:08:53;;;;;;;8.32;7.47;;;;;;;19.00;67.62;96066.66;5032265;28;20186;-77
2022/07/22 00:11:19;;;;;;;9.65;8.10;;;;;;;19.01;66.94;96063.81;5014452;28;20204;-77
2022/07/22 00:13:45;;;;;;;8.68;7.18;;;;;;;18.96;67.79;96060.94;5021490;28;20197;-78
2022/07/22 00:16:10;;;;;;;9.00;7.97;;;;;;;19.00;67.67;96061.38;5033932;28;20181;-78
2022/07/22 00:18:36;;;;;;;8.23;7.45;;;;;;;18.89;68.17;96060.84;5034142;28;20185;-77
2022/07/22 00:21:01;;;;;;;8.57;7.78;;;;;;;18.80;68.63;96063.78;5032050;28;20185;-77
2022/07/22 00:23:26;;;;;;;8.32;7.63;;;;;;;18.79;68.56;96064.78;5014334;28;20206;-77
2022/07/22 00:25:53;;;;;;;8.30;7.50;;;;;;;18.71;69.63;96062.28;5029706;28;20244;-76
2022/07/22 00:28:18;;;;;;;8.23;7.43;;;;;;;18.56;69.74;96059.66;5014438;28;20175;-77
2022/07/22 00:30:44;;;;;;;10.23;8.27;;;;;;;18.48;70.29;96055.31;5030999;28;20308;-77
2022/07/22 00:33:09;;;;;;;8.05;7.38;;;;;;;18.45;70.75;96057.47;5017497;28;20205;-78
2022/07/22 00:35:34;;;;;;;9.18;8.43;;;;;;;18.44;70.44;96055.84;5034904;28;20178;-77
2022/07/22 00:37:59;;;;;;;8.75;7.85;;;;;;;18.42;70.51;96057.84;5034402;28;20174;-76
2022/07/22 00:40:25;;;;;;;7.78;7.10;;;;;;;18.38;70.83;96058.25;5051123;28;20185;-78
2022/07/22 00:42:50;;;;;;;9.57;8.40;;;;;;;18.40;70.70;96052.78;5042289;28;20230;-78
2022/07/22 00:45:16;;;;;;;8.38;7.57;;;;;;;18.37;70.23;96051.31;5030184;28;20187;-78
2022/07/22 00:47:41;;;;;;;8.52;7.72;;;;;;;18.32;70.63;96053.69;5034228;28;20178;-77
2022/07/22 00:50:07;;;;;;;8.45;7.65;;;;;;;18.32;70.76;96048.44;5051500;28;20205;-79
2022/07/22 00:52:33;;;;;;;9.05;8.32;;;;;;;18.28;70.82;96039.28;5050020;28;20255;-78
2022/07/22 00:55:00;;;;;;;8.50;7.20;;;;;;;18.25;71.02;96039.66;5032830;28;20215;-78
2022/07/22 00:57:25;;;;;;;9.68;8.65;;;;;;;18.21;71.48;96037.59;5032327;28;20185;-78
2022/07/22 00:59:50;;;;;;;8.52;7.72;;;;;;;18.17;71.28;96042.38;5016219;28;20174;-78
2022/07/22 01:02:16;;;;;;;9.00;8.10;;;;;;;18.16;71.35;96040.75;5033970;28;20741;-77
2022/07/22 01:04:41;;;;;;;9.07;8.25;;;;;;;18.17;71.80;96034.50;5051105;28;20606;-76
2022/07/22 01:07:06;;;;;;;8.90;8.00;;;;;;;18.10;72.20;96033.59;5033521;28;20181;-79
2022/07/22 01:09:32;;;;;;;8.85;7.97;;;;;;;18.13;71.72;96033.25;5034213;28;20674;-79
2022/07/22 01:11:57;;;;;;;9.32;8.43;;;;;;;18.09;71.57;96030.16;5049543;28;20210;-79
2022/07/22 01:14:23;;;;;;;8.55;7.75;;;;;;;18.05;71.47;96030.72;5032804;28;20567;-77
2022/07/22 01:16:48;;;;;;;9.85;8.88;;;;;;;18.01;72.68;96030.22;5034481;28;20188;-77
2022/07/22 01:19:13;;;;;;;9.65;8.65;;;;;;;17.97;72.88;96023.72;5046906;28;20189;-79
2022/07/22 01:21:38;;;;;;;11.93;9.13;;;;;;;17.96;72.73;96032.59;5039414;28;20209;-75
2022/07/22 01:24:06;;;;;;;9.65;8.65;;;;;;;17.98;72.71;96024.53;5078349;28;20197;-77
2022/07/22 01:26:33;;;;;;;11.05;9.35;;;;;;;17.93;72.83;96030.31;5078753;28;20221;-76
2022/07/22 01:28:58;;;;;;;10.25;9.00;;;;;;;17.91;73.23;96028.88;5077528;28;20245;-75
2022/07/22 01:31:23;;;;;;;9.95;8.95;;;;;;;17.90;73.53;96032.50;5042107;28;20697;-77
2022/07/22 01:33:49;;;;;;;9.82;8.80;;;;;;;17.84;73.60;96028.78;5054647;28;20224;-78
2022/07/22 01:36:14;;;;;;;9.82;9.02;;;;;;;17.82;73.76;96028.97;5060366;28;20222;-79
2022/07/22 01:38:39;;;;;;;10.15;8.98;;;;;;;17.81;73.87;96032.59;5020945;28;20186;-77
2022/07/22 01:41:05;;;;;;;10.43;9.40;;;;;;;17.82;74.29;96028.97;5036665;28;20676;-78
2022/07/22 01:43:30;;;;;;;10.10;9.15;;;;;;;17.80;74.64;96028.34;5053336;28;20173;-78
2022/07/22 01:45:56;;;;;;;10.35;9.40;;;;;;;17.80;74.33;96023.09;5019960;28;20562;-77
2022/07/22 01:48:22;;;;;;;10.50;9.52;;;;;;;17.83;74.64;96021.91;5054280;28;20177;-78
2022/07/22 01:50:47;;;;;;;11.63;9.60;;;;;;;17.82;74.49;96025.53;5017333;28;20205;-78
2022/07/22 01:53:12;;;;;;;10.25;9.25;;;;;;;17.83;74.68;96027.97;5033884;28;20286;-79
2022/07/22 01:55:38;;;;;;;10.88;9.77;;;;;;;17.81;75.05;96023.91;5020376;28;20177;-78
2022/07/22 01:58:04;;;;;;;11.38;10.23;;;;;;;17.81;75.04;96023.91;5020724;28;20235;-79
2022/07/22 02:00:32;;;;;;;10.93;9.93;;;;;;;17.78;75.80;96030.34;5053415;28;20224;-79
2022/07/22 02:02:58;;;;;;;14.20;10.88;;;;;;;17.80;76.48;96028.34;5037031;28;20228;-80
2022/07/22 02:05:23;;;;;;;11.45;10.45;;;;;;;17.73;77.23;96030.06;5053304;28;20178;-79
2022/07/22 02:07:49;;;;;;;12.23;10.98;;;;;;;17.75;77.15;96024.63;5053844;28;20174;-78
2022/07/22 02:10:14;;;;;;;12.13;11.02;;;;;;;17.74;78.17;96025.63;5036780;28;20233;-80
2022/07/22 02:12:39;;;;;;;13.45;12.05;;;;;;;17.72;78.12;96027.63;5054373;28;20197;-79
2022/07/22 02:15:05;;;;;;;13.75;12.45;;;;;;;17.69;78.39;96020.88;5052610;28;20205;-80
2022/07/22 02:17:33;;;;;;;14.02;12.48;;;;;;;17.65;79.36;96016.97;5035886;28;20481;-77
2022/07/22 02:19:58;;;;;;;13.90;12.07;;;;;;;17.70;79.30;96016.47;5035587;28;20208;-80
2022/07/22 02:22:23;;;;;;;13.57;12.10;;;;;;;17.63;79.08;96013.72;5052803;28;20224;-76
2022/07/22 02:24:49;;;;;;;13.55;12.10;;;;;;;17.63;78.92;96013.72;5051652;28;20231;-80
2022/07/22 02:27:14;;;;;;;12.43;11.23;;;;;;;17.61;78.77;96010.47;5051774;28;20186;-78
2022/07/22 02:29:39;;;;;;;15.05;12.35;;;;;;;17.56;78.34;96013.63;5051948;28;20656;-76
2022/07/22 02:32:05;;;;;;;13.18;11.90;;;;;;;17.58;78.62;96018.72;5052057;28;20267;-79
2022/07/22 02:34:30;;;;;;;13.82;12.43;;;;;;;17.53;78.40;96007.91;5034786;28;20181;-80
2022/07/22 02:36:56;;;;;;;12.32;11.05;;;;;;;17.50;78.91;96014.34;5035867;28;20185;-75
2022/07/22 02:39:21;;;;;;;14.63;13.27;;;;;;;17.49;80.55;96007.47;5053681;28;20658;-77
2022/07/22 02:41:46;;;;;;;15.93;13.25;;;;;;;17.45;81.53;96010.63;5035772;28;20194;-78
2022/07/22 02:44:12;;;;;;;14.38;12.82;;;;;;;17.45;81.09;96006.19;5051617;28;20178;-77
2022/07/22 02:46:37;;;;;;;15.55;13.75;;;;;;;17.44;81.50;96009.81;5035932;28;20201;-78
2022/07/22 02:49:04;;;;;;;17.30;13.35;;;;;;;17.43;81.47;96005.56;5030362;28;20229;-78
2022/07/22 02:51:29;;;;;;;14.57;13.23;;;;;;;17.42;81.89;96008.34;5015625;28;20202;-78
2022/07/22 02:53:55;;;;;;;16.77;13.25;;;;;;;17.37;82.17;96011.50;5019927;28;20189;-78
2022/07/22 02:56:20;;;;;;;15.70;14.00;;;;;;;17.37;81.73;96011.50;5053827;28;20181;-78
2022/07/22 02:58:46;;;;;;;16.77;13.07;;;;;;;17.36;81.88;96004.63;5035629;28;20246;-78
2022/07/22 03:01:12;;;;;;;14.90;13.50;;;;;;;17.31;81.99;96000.91;5052582;28;20181;-78
2022/07/22 03:03:37;;;;;;;16.42;14.65;;;;;;;17.26;83.20;96012.75;5035293;28;20193;-77
2022/07/22 03:06:03;;;;;;;16.25;13.98;;;;;;;17.27;82.28;96011.75;5035061;28;20232;-78
2022/07/22 03:08:28;;;;;;;17.75;14.23;;;;;;;17.27;82.55;96010.94;5051683;28;20173;-77
2022/07/22 03:10:53;;;;;;;15.73;13.88;;;;;;;17.19;83.01;96006.56;5051493;28;20201;-78
2022/07/22 03:13:18;;;;;;;16.05;13.65;;;;;;;17.18;82.75;96010.19;5051509;28;20209;-79
2022/07/22 03:15:44;;;;;;;15.43;13.75;;;;;;;17.22;82.48;96008.84;5034285;28;20189;-78
2022/07/22 03:18:09;;;;;;;18.10;14.52;;;;;;;17.09;84.42;96010.44;5051571;28;20174;-77
2022/07/22 03:20:34;;;;;;;16.20;13.98;;;;;;;17.10;83.45;96005.03;5051842;28;20182;-78
2022/07/22 03:23:00;;;;;;;15.15;13.73;;;;;;;17.09;82.92;96016.50;5051528;28;20201;-78
2022/07/22 03:25:25;;;;;;;16.92;15.13;;;;;;;17.08;83.63;96020.13;5050738;28;20192;-77
2022/07/22 03:27:50;;;;;;;15.98;14.20;;;;;;;17.17;83.45;96013.00;5052752;28;20733;-78
2022/07/22 03:30:16;;;;;;;16.50;13.55;;;;;;;17.11;83.35;96011.06;5034569;28;20284;-78
2022/07/22 03:32:44;;;;;;;16.75;13.18;;;;;;;17.06;82.96;96009.00;5034819;28;20282;-79
2022/07/22 03:35:10;;;;;;;17.90;14.68;;;;;;;17.09;83.92;96008.63;5050962;28;20170;-78
2022/07/22 03:37:36;;;;;;;15.35;13.73;;;;;;;17.08;83.65;96011.44;5016753;28;20186;-77
2022/07/22 03:40:01;;;;;;;17.33;14.70;;;;;;;17.07;83.16;96009.81;5033503;28;20188;-79
2022/07/22 03:42:27;;;;;;;17.00;15.25;;;;;;;17.05;83.13;96011.78;5051235;28;20197;-78
2022/07/22 03:44:52;;;;;;;19.33;14.20;;;;;;;17.06;83.86;96009.00;5051026;28;20182;-78
2022/07/22 03:47:19;;;;;;;16.52;14.70;;;;;;;17.15;83.15;96009.75;5052397;28;20181;-78
2022/07/22 03:49:44;;;;;;;16.05;14.40;;;;;;;17.18;82.46;96006.75;5034505;28;20185;-78
2022/07/22 03:52:09;;;;;;;16.20;14.60;;;;;;;17.14;82.83;96008.94;5051455;28;20190;-78
2022/07/22 03:54:34;;;;;;;16.48;14.88;;;;;;;17.21;82.32;96011.66;5052337;28;20174;-78
2022/07/22 03:57:00;;;;;;;16.60;14.88;;;;;;;17.22;82.09;96014.09;5050652;28;20725;-78
2022/07/22 03:59:25;;;;;;;16.13;14.43;;;;;;;17.11;82.75;96011.88;5034541;28;20205;-78
2022/07/22 04:01:50;;;;;;;19.90;15.65;;;;;;;17.11;82.97;96011.88;5015744;28;20202;-78
2022/07/22 04:04:16;;;;;;;18.65;15.80;;;;;;;17.18;82.74;96014.63;5015879;28;20174;-77
2022/07/22 04:06:41;;;;;;;18.27;16.35;;;;;;;17.16;83.37;96019.25;5041262;28;20265;-79
2022/07/22 04:09:06;;;;;;;18.02;15.73;;;;;;;17.19;82.72;96008.38;5033892;28;20204;-79
2022/07/22 04:11:32;;;;;;;15.18;13.85;;;;;;;17.80;80.60;95999.44;5051600;28;20209;-78
2022/07/22 04:13:57;;;;;;;16.27;14.23;;;;;;;18.33;76.69;96002.75;5049916;28;20228;-79
2022/07/22 04:16:22;;;;;;;15.05;13.57;;;;;;;18.83;74.75;96008.19;5050531;28;20539;-79
2022/07/22 04:18:47;;;;;;;16.38;14.63;;;;;;;18.64;74.51;96001.66;5057773;28;20169;-78
2022/07/22 04:21:13;;;;;;;15.30;13.77;;;;;;;18.47;75.30;95992.41;5074697;28;20205;-78
2022/07/22 04:23:39;;;;;;;16.65;14.23;;;;;;;18.31;76.05;95999.50;5052904;28;20186;-79
2022/07/22 04:26:05;;;;;;;15.52;13.93;;;;;;;18.18;77.03;95988.81;5042670;28;20186;-77
2022/07/22 04:28:33;;;;;;;15.73;14.07;;;;;;;17.99;78.19;95994.63;5059588;28;20194;-78
2022/07/22 04:30:58;;;;;;;17.25;13.45;;;;;;;18.01;78.03;95997.88;5046106;28;20352;-78
2022/07/22 04:33:23;;;;;;;16.08;14.23;;;;;;;18.02;77.87;95994.25;5052017;28;20677;-79
2022/07/22 04:35:49;;;;;;;15.60;14.02;;;;;;;18.15;77.33;95993.63;5030242;28;20197;-76
2022/07/22 04:38:17;;;;;;;16.23;14.45;;;;;;;17.98;78.58;95998.25;5030649;28;20193;-79
2022/07/22 04:40:42;;;;;;;14.98;13.38;;;;;;;18.55;77.82;95997.50;5034083;28;20333;-80
2022/07/22 04:43:08;;;;;;;15.45;13.85;;;;;;;19.99;70.70;95994.50;5034152;28;20197;-79
2022/07/22 04:45:33;;;;;;;15.73;12.30;;;;;;;21.36;64.77;95998.72;5033223;28;20199;-80
2022/07/22 04:47:58;;;;;;;14.07;12.77;;;;;;;22.55;60.19;95998.47;5017731;28;20201;-80
2022/07/22 04:50:23;;;;;;;14.65;12.05;;;;;;;23.58;55.38;95995.50;5035794;28;20673;-78
2022/07/22 04:52:49;;;;;;;12.75;11.38;;;;;;;24.86;50.96;96000.84;5036016;28;20197;-79
2022/07/22 04:55:14;;;;;;;12.00;10.90;;;;;;;25.24;48.25;95999.69;5052206;28;20247;-78
2022/07/22 04:57:39;;;;;;;13.85;10.80;;;;;;;26.30;46.55;95996.00;5053873;28;20197;-80
2022/07/22 05:00:06;;;;;;;11.30;10.20;;;;;;;26.58;45.95;96002.41;5054048;28;20255;-80
2022/07/22 05:02:31;;;;;;;11.77;10.65;;;;;;;26.82;45.24;95996.75;5052398;28;20576;-79
2022/07/22 05:04:56;;;;;;;11.05;9.95;;;;;;;27.27;43.49;95998.63;5026726;28;20174;-79
2022/07/22 05:07:21;;;;;;;11.82;9.85;;;;;;;27.80;42.18;96008.03;5027222;28;20181;-80
2022/07/22 05:09:47;;;;;;;11.38;10.40;;;;;;;28.16;40.98;96005.84;5025352;28;20182;-80
2022/07/22 05:12:12;;;;;;;9.65;8.85;;;;;;;29.62;38.10;95999.69;5018493;28;20623;-80
2022/07/22 05:14:37;;;;;;;9.60;8.65;;;;;;;29.49;37.66;96010.81;5027021;28;20190;-81
2022/07/22 05:17:03;;;;;;;10.70;9.77;;;;;;;29.29;37.86;96006.09;5015876;28;20178;-79
2022/07/22 05:19:29;;;;;;;11.60;10.23;;;;;;;28.23;39.49;95999.28;5017628;28;20174;-80
2022/07/22 05:21:54;;;;;;;10.32;9.30;;;;;;;29.36;37.77;96005.88;5039098;28;20193;-80
2022/07/22 05:24:19;;;;;;;10.68;9.68;;;;;;;28.57;39.44;96001.06;5036069;28;20553;-79
2022/07/22 05:26:45;;;;;;;11.20;10.20;;;;;;;28.86;39.12;96006.97;5055323;28;20198;-79
2022/07/22 05:29:10;;;;;;;10.45;9.55;;;;;;;29.45;37.00;96005.16;5053488;28;20219;-80
2022/07/22 05:31:35;;;;;;;11.20;10.20;;;;;;;28.73;38.45;96003.66;5029155;28;20226;-79
2022/07/22 05:34:01;;;;;;;11.45;10.43;;;;;;;28.77;38.39;96006.63;5024682;28;20177;-79
2022/07/22 05:36:26;;;;;;;11.35;10.30;;;;;;;29.21;37.81;96009.22;5027682;28;20199;-79
2022/07/22 05:38:52;;;;;;;10.70;9.70;;;;;;;28.70;39.11;96001.47;5046486;28;20209;-79
2022/07/22 05:41:17;;;;;;;10.55;9.65;;;;;;;28.38;39.45;96004.03;5024474;28;20186;-80
2022/07/22 05:43:42;;;;;;;10.73;9.32;;;;;;;30.16;36.31;96004.88;5035888;28;20185;-78
2022/07/22 05:46:08;;;;;;;10.32;9.43;;;;;;;31.56;33.63;96007.41;5033422;28;20198;-79
2022/07/22 05:48:33;;;;;;;10.70;9.75;;;;;;;30.22;35.64;96000.38;5023832;28;20213;-79
2022/07/22 05:50:58;;;;;;;10.65;9.55;;;;;;;29.97;36.15;96003.66;5035387;28;20217;-79
2022/07/22 05:53:24;;;;;;;11.32;9.57;;;;;;;32.39;32.47;96007.03;5035170;28;20202;-79
2022/07/22 05:55:49;;;;;;;10.65;9.48;;;;;;;28.77;38.12;96006.63;5054306;28;20251;-79
2022/07/22 05:58:14;;;;;;;9.27;8.38;;;;;;;30.67;34.76;96003.25;5037412;28;20182;-79
2022/07/22 06:00:40;;;;;;;12.35;10.50;;;;;;;29.69;36.12;96002.16;5052430;28;20233;-80
2022/07/22 06:03:05;;;;;;;10.73;9.52;;;;;;;30.43;35.63;96002.84;5034584;28;20246;-79
2022/07/22 06:05:31;;;;;;;10.32;9.38;;;;;;;30.10;35.57;96009.38;5035502;28;20202;-80
2022/07/22 06:07:56;;;;;;;21.40;11.77;;;;;;;29.57;36.95;96015.69;5035893;28;20189;-80
2022/07/22 06:10:21;;;;;;;13.10;9.55;;;;;;;30.26;35.13;96007.59;5036422;28;20216;-81
2022/07/22 06:12:47;;;;;;;10.38;9.38;;;;;;;29.52;37.66;96008.47;5036437;28;20197;-81
2022/07/22 06:15:12;;;;;;;10.30;9.30;;;;;;;29.89;36.13;95996.94;5018408;28;20185;-81
2022/07/22 06:17:37;;;;;;;9.93;8.93;;;;;;;32.01;32.50;96007.66;5019014;28;20186;-81
2022/07/22 06:20:03;;;;;;;8.35;7.55;;;;;;;33.58;30.72;96016.06;5035489;28;20184;-80
2022/07/22 06:22:28;;;;;;;9.68;8.65;;;;;;;33.08;29.84;96012.63;5017767;28;20307;-79
2022/07/22 06:24:54;;;;;;;10.52;8.75;;;;;;;30.68;34.53;96004.84;5027665;28;20265;-81
2022/07/22 06:27:19;;;;;;;9.88;8.88;;;;;;;30.68;34.51;96006.72;5035429;28;20227;-82
2022/07/22 06:29:44;;;;;;;8.68;7.90;;;;;;;32.09;32.45;96007.91;5032160;28;20182;-79
2022/07/22 06:32:10;;;;;;;9.65;8.75;;;;;;;32.56;30.97;96005.91;5018069;28;20206;-80
2022/07/22 06:34:35;;;;;;;10.40;9.30;;;;;;;30.68;33.87;96001.38;5029608;28;20190;-79
2022/07/22 06:37:00;;;;;;;9.40;8.50;;;;;;;31.98;32.81;96002.81;5033227;28;20193;-79
2022/07/22 06:39:26;;;;;;;9.57;8.65;;;;;;;32.58;31.52;96009.91;5052993;28;20174;-80
2022/07/22 06:41:54;;;;;;;9.45;8.57;;;;;;;31.48;33.26;95999.09;5051652;28;20255;-82
2022/07/22 06:44:19;;;;;;;9.38;8.50;;;;;;;31.77;32.64;95994.81;5036441;28;20670;-83
2022/07/22 06:46:45;;;;;;;8.68;7.85;;;;;;;31.89;32.78;96002.56;5035384;28;20193;-81
2022/07/22 06:49:10;;;;;;;9.93;9.02;;;;;;;31.36;32.97;95993.19;5034926;28;20565;-80
2022/07/22 06:51:35;;;;;;;10.25;9.25;;;;;;;30.42;35.23;95990.53;5050192;28;20214;-80
2022/07/22 06:54:01;;;;;;;9.93;9.00;;;;;;;30.79;34.57;95988.78;5051939;28;20216;-80
2022/07/22 06:56:26;;;;;;;10.60;8.85;;;;;;;31.66;32.37;95997.75;5051897;28;20193;-80
2022/07/22 06:58:51;;;;;;;10.77;8.27;;;;;;;32.98;31.14;95994.69;5052906;28;20243;-81
2022/07/22 07:01:17;;;;;;;8.07;7.28;;;;;;;32.94;31.01;95991.72;5034544;28;20201;-81
2022/07/22 07:03:42;;;;;;;9.13;8.23;;;;;;;32.82;31.05;95999.31;5034208;28;20173;-81
2022/07/22 07:06:11;;;;;;;10.57;9.00;;;;;;;32.43;31.35;95993.88;5034244;28;20192;-80
2022/07/22 07:08:36;;;;;;;8.40;7.60;;;;;;;33.29;29.53;95991.75;5018109;28;20192;-82
2022/07/22 07:11:02;;;;;;;8.48;7.55;;;;;;;29.98;35.86;95984.66;5049546;28;20288;-81
2022/07/22 07:13:27;;;;;;;10.73;8.43;;;;;;;31.25;33.42;95974.41;5032787;28;20218;-81
2022/07/22 07:15:52;;;;;;;9.50;8.50;;;;;;;31.78;32.24;95980.31;5003405;28;20182;-81
2022/07/22 07:18:18;;;;;;;9.40;8.50;;;;;;;31.81;32.03;95971.72;5032828;28;20603;-81
2022/07/22 07:20:43;;;;;;;8.80;8.07;;;;;;;31.54;33.01;95973.84;5015289;28;20183;-82
2022/07/22 07:23:09;;;;;;;9.50;8.50;;;;;;;30.62;34.23;95968.34;5020612;28;20206;-81
2022/07/22 07:25:34;;;;;;;8.57;7.82;;;;;;;31.04;33.68;95969.28;5051999;28;20186;-82
2022/07/22 07:27:59;;;;;;;8.27;7.45;;;;;;;30.97;33.88;95966.84;5051472;28;20217;-84
2022/07/22 07:30:25;;;;;;;8.57;7.82;;;;;;;31.97;32.66;95961.72;5052525;28;20205;-84
2022/07/22 07:32:50;;;;;;;8.90;8.02;;;;;;;31.85;32.61;95963.91;5037536;28;20213;-86
2022/07/22 07:35:15;;;;;;;8.73;7.88;;;;;;;32.45;31.42;95961.34;5035343;28;20197;-82
2022/07/22 07:37:41;;;;;;;8.10;7.40;;;;;;;31.04;34.90;95959.34;5036948;28;20185;-82
2022/07/22 07:40:07;;;;;;;8.52;7.72;;;;;;;32.30;32.50;95963.00;5046812;28;20182;-82
2022/07/22 07:42:35;;;;;;;9.82;8.93;;;;;;;30.91;34.28;95959.84;5009920;28;20202;-81
2022/07/22 07:45:00;;;;;;;9.82;8.82;;;;;;;30.01;36.25;95964.59;5014999;28;20182;-84
2022/07/22 07:47:26;;;;;;;8.57;7.72;;;;;;;30.26;36.38;95963.94;5020469;28;20189;-84
2022/07/22 07:49:51;;;;;;;9.38;8.07;;;;;;;31.53;33.23;95966.88;5012175;28;20212;-84
2022/07/22 07:52:17;;;;;;;8.55;7.78;;;;;;;31.09;34.30;95964.69;5001426;28;20585;-85
2022/07/22 07:54:42;;;;;;;9.40;8.30;;;;;;;29.26;37.43;95969.16;5012871;28;20661;-84
2022/07/22 07:57:10;;;;;;;11.25;8.80;;;;;;;30.16;35.93;95960.16;5021498;28;20201;-84
2022/07/22 07:59:35;;;;;;;8.68;7.72;;;;;;;30.86;34.93;95957.19;5033275;28;20177;-84
2022/07/22 08:02:01;;;;;;;10.10;8.02;;;;;;;29.97;36.33;95955.47;5055456;28;20186;-84
2022/07/22 08:04:26;;;;;;;9.18;7.90;;;;;;;30.31;35.09;95954.06;5036045;28;20186;-84
2022/07/22 08:06:51;;;;;;;10.23;7.50;;;;;;;30.75;34.00;95952.88;5020518;28;20186;-85
2022/07/22 08:09:17;;;;;;;11.45;7.55;;;;;;;30.08;35.27;95949.94;5022570;28;20193;-85
2022/07/22 08:11:42;;;;;;;8.40;7.25;;;;;;;29.93;35.53;95959.72;5037919;28;20216;-86
2022/07/22 08:14:07;;;;;;;9.00;7.10;;;;;;;29.16;36.92;95966.41;5023267;28;20552;-85
2022/07/22 08:16:33;;;;;;;8.10;7.32;;;;;;;29.09;37.16;95960.44;5039927;28;20231;-87
2022/07/22 08:18:58;;;;;;;9.52;8.55;;;;;;;28.75;37.74;95952.63;5021739;28;20170;-85
2022/07/22 08:21:25;;;;;;;8.25;7.53;;;;;;;29.22;37.42;95954.66;5022238;28;20201;-87
2022/07/22 08:23:51;;;;;;;9.65;8.63;;;;;;;29.14;37.27;95952.47;5037615;28;20185;-87
2022/07/22 08:26:16;;;;;;;11.98;8.13;;;;;;;28.49;38.89;95944.34;5026483;28;20262;-85
2022/07/22 08:28:41;;;;;;;9.82;8.82;;;;;;;28.42;39.19;95938.38;5041139;28;20182;-86
2022/07/22 08:31:06;;;;;;;8.68;7.80;;;;;;;28.18;39.62;95942.31;5041404;28;20205;-86
2022/07/22 08:33:32;;;;;;;8.63;7.82;;;;;;;28.51;38.87;95946.75;5035438;28;20202;-87
2022/07/22 08:35:57;;;;;;;8.85;7.70;;;;;;;28.64;38.70;95942.91;5033503;28;20190;-87
2022/07/22 08:38:23;;;;;;;10.73;7.93;;;;;;;28.48;38.78;95947.25;5016300;28;20178;-85
2022/07/22 08:40:48;;;;;;;9.23;8.00;;;;;;;28.31;39.14;95935.84;5032446;28;20186;-85
2022/07/22 08:43:13;;;;;;;9.52;7.35;;;;;;;28.26;39.70;95935.75;5034296;28;20284;-86
2022/07/22 08:45:40;;;;;;;8.90;8.00;;;;;;;28.25;39.84;95934.94;5020296;28;20194;-85
2022/07/22 08:48:06;;;;;;;9.65;8.02;;;;;;;27.45;41.20;95932.78;5035859;28;20231;-86
2022/07/22 08:50:31;;;;;;;9.68;8.68;;;;;;;27.84;39.98;95930.97;5026828;28;20682;-85
2022/07/22 08:52:57;;;;;;;9.35;7.97;;;;;;;27.20;41.03;95923.34;5034497;28;20260;-85
2022/07/22 08:55:23;;;;;;;8.93;7.95;;;;;;;26.97;42.06;95918.16;5052238;28;20668;-85
2022/07/22 08:57:49;;;;;;;10.20;7.60;;;;;;;27.16;42.01;95926.75;5019513;28;20209;-86
2022/07/22 09:00:20;;;;;;;8.93;7.90;;;;;;;27.08;42.36;95922.63;5037191;28;20181;-87
2022/07/22 09:02:46;;;;;;;8.95;8.00;;;;;;;26.91;42.21;95927.91;5020826;28;20562;-86
2022/07/22 09:05:16;;;;;;;10.20;8.27;;;;;;;26.91;42.17;95929.75;5035254;28;20195;-86
2022/07/22 09:07:42;;;;;;;9.02;8.23;;;;;;;26.97;43.47;95923.47;5035386;28;20174;-86
2022/07/22 09:10:10;;;;;;;9.30;8.18;;;;;;;27.28;42.00;95919.47;5052187;28;20212;-86
2022/07/22 09:12:54;;;;;;;7.63;6.93;;;;;;;27.55;41.26;95914.25;5035462;28;20689;-85
2022/07/22 09:15:29;;;;;;;7.82;7.10;;;;;;;27.84;39.59;95913.09;4999088;28;20217;-86
2022/07/22 09:17:55;;;;;;;9.25;7.22;;;;;;;27.95;39.85;95914.03;5032178;28;20185;-85
2022/07/22 09:20:20;;;;;;;8.20;7.43;;;;;;;27.59;41.00;95916.19;5041361;28;20174;-87
2022/07/22 09:22:48;;;;;;;10.48;7.65;;;;;;;28.25;40.45;95913.56;5026122;28;20229;-86
2022/07/22 09:25:22;;;;;;;10.35;7.63;;;;;;;28.06;40.29;95906.94;5028346;28;20228;-85
2022/07/22 09:27:50;;;;;;;9.15;7.03;;;;;;;28.34;38.13;95912.09;5033818;28;20177;-86
2022/07/22 09:30:20;;;;;;;11.82;7.25;;;;;;;28.56;37.42;95919.28;5018083;28;20174;-86
2022/07/22 09:32:46;;;;;;;8.57;7.60;;;;;;;28.28;38.54;95914.97;5036950;28;20205;-85
2022/07/22 09:35:11;;;;;;;8.10;7.30;;;;;;;27.71;38.07;95908.09;5018317;28;20239;-86
2022/07/22 09:37:48;;;;;;;8.10;7.30;;;;;;;28.00;37.94;95905.25;5033713;28;20526;-85
2022/07/22 09:40:15;;;;;;;7.45;6.72;;;;;;;27.53;39.44;95908.38;5034227;28;20182;-85
2022/07/22 09:42:54;;;;;;;9.13;7.45;;;;;;;28.05;39.13;95894.66;5015736;28;20634;-86
2022/07/22 09:45:21;;;;;;;7.78;7.00;;;;;;;28.31;39.43;95899.25;5020118;28;20307;-86
2022/07/22 09:47:48;;;;;;;8.60;7.85;;;;;;;28.33;38.59;95907.81;5012914;28;20646;-85
2022/07/22 09:50:25;;;;;;;9.80;7.72;;;;;;;27.94;39.51;95891.06;5053024;28;20174;-86
2022/07/22 09:52:51;;;;;;;8.93;6.78;;;;;;;28.00;39.25;95898.06;5032832;28;20672;-85
2022/07/22 09:55:19;;;;;;;7.70;7.05;;;;;;;28.47;38.31;95885.03;5036836;28;20178;-85
2022/07/22 09:57:45;;;;;;;9.60;7.05;;;;;;;28.37;39.51;95884.13;5054091;28;20200;-85
2022/07/22 10:00:12;;;;;;;8.82;7.95;;;;;;;28.20;38.81;95886.84;5021645;28;20178;-84
2022/07/22 10:02:46;;;;;;;10.20;8.07;;;;;;;28.02;39.40;95887.97;5021415;28;20201;-84
2022/07/22 10:05:13;;;;;;;8.73;7.82;;;;;;;27.63;39.22;95884.50;5021524;28;20197;-84
2022/07/22 10:07:41;;;;;;;8.63;7.68;;;;;;;28.08;38.99;95883.47;5056142;28;20715;-84
2022/07/22 10:10:07;;;;;;;8.88;7.35;;;;;;;28.02;39.49;95881.81;5037868;28;20634;-84
2022/07/22 10:12:33;;;;;;;9.00;8.10;;;;;;;28.10;39.76;95873.38;5040417;28;20661;-85
2022/07/22 10:14:59;;;;;;;9.15;8.25;;;;;;;27.69;39.34;95867.53;5043225;28;20311;-85
2022/07/22 10:17:24;;;;;;;9.82;8.13;;;;;;;27.91;39.55;95865.66;5025431;28;20182;-84
2022/07/22 10:19:50;;;;;;;8.50;7.57;;;;;;;28.21;39.80;95851.88;5037295;28;20645;-84
2022/07/22 10:22:38;;;;;;;7.95;7.15;;;;;;;28.64;39.66;95862.72;5036774;28;20206;-84
2022/07/22 10:25:04;;;;;;;8.55;7.75;;;;;;;28.66;38.56;95847.25;5056972;28;20197;-85
2022/07/22 10:28:02;;;;;;;9.27;8.20;;;;;;;28.73;37.61;95854.00;5024385;28;20585;-86
2022/07/22 10:30:33;;;;;;;8.65;7.45;;;;;;;28.86;35.92;95850.09;5036851;28;20228;-84
2022/07/22 10:33:12;;;;;;;8.77;7.40;;;;;;;29.15;36.48;95850.59;5036112;28;20343;-84
2022/07/22 10:35:53;;;;;;;7.68;6.93;;;;;;;29.05;36.55;95851.31;5036383;28;20542;-85
2022/07/22 10:38:21;;;;;;;9.55;7.63;;;;;;;29.16;36.34;95854.09;5017369;28;20183;-85
2022/07/22 10:41:01;;;;;;;11.80;7.25;;;;;;;29.10;37.15;95847.09;5050922;28;20174;-84
2022/07/22 10:43:31;;;;;;;10.63;8.18;;;;;;;29.00;36.83;95845.97;5022257;28;20735;-85
2022/07/22 10:46:06;;;;;;;10.77;7.18;;;;;;;29.15;36.92;95844.44;5036608;28;20246;-85
2022/07/22 10:48:37;;;;;;;9.50;7.60;;;;;;;29.15;36.58;95842.56;5046479;28;20181;-84
2022/07/22 10:51:16;;;;;;;9.65;7.68;;;;;;;29.43;35.80;95845.97;5035052;28;20201;-85
2022/07/22 10:53:59;;;;;;;9.00;7.03;;;;;;;29.24;35.80;95845.56;5028670;28;20174;-86
2022/07/22 10:56:27;;;;;;;10.15;7.55;;;;;;;28.88;35.42;95837.25;5058397;28;20178;-85
2022/07/22 10:58:59;;;;;;;8.00;7.20;;;;;;;28.88;36.34;95833.78;5055279;28;20212;-86
2022/07/22 11:01:29;;;;;;;7.40;6.70;;;;;;;28.72;36.17;95832.88;5058680;28;20221;-86
2022/07/22 11:03:55;;;;;;;7.95;7.22;;;;;;;28.67;36.69;95830.16;5059059;28;20162;-86
2022/07/22 11:06:29;;;;;;;8.40;7.22;;;;;;;29.29;36.24;95829.56;5043236;28;20170;-86
2022/07/22 11:09:07;;;;;;;8.00;7.40;;;;;;;28.66;36.12;95829.34;5037865;28;20613;-84
2022/07/22 11:11:47;;;;;;;9.57;7.30;;;;;;;29.08;35.76;95831.31;5016180;28;20206;-85
2022/07/22 11:14:26;;;;;;;8.35;7.38;;;;;;;29.12;34.91;95827.03;5018998;28;20190;-85
2022/07/22 11:17:13;;;;;;;7.90;7.20;;;;;;;28.98;34.84;95815.19;5032629;28;20186;-85
2022/07/22 11:19:39;;;;;;;7.57;6.90;;;;;;;29.58;34.00;95814.75;5056147;28;20178;-85
2022/07/22 11:22:07;;;;;;;7.30;6.53;;;;;;;28.93;35.78;95813.28;5039558;28;20204;-85
2022/07/22 11:24:33;;;;;;;7.78;6.95;;;;;;;29.79;33.81;95809.50;5020205;28;20190;-85